sensor_id;sensor_type;location;lat;lon;timestamp;pressure;altitude;pressure_sealevel;temperature;humidity
60244;BME280;46106;51.468;5.814;2022-08-21T00:01:15;101372.91;;;14.66;100.00
60244;BME280;46106;51.468;5.814;2022-08-21T00:03:43;101375.53;;;14.68;100.00
60244;BME280;46106;51.468;5.814;2022-08-21T00:06:10;101374.03;;;14.64;100.00
60244;BME280;46106;51.468;5.814;2022-08-21T00:08:36;101360.25;;;14.64;100.00
60244;BME280;46106;51.468;5.814;2022-08-21T00:11:03;101367.25;;;14.68;100.00
60244;BME280;46106;51.468;5.814;2022-08-21T00:13:33;101375.41;;;14.69;100.00
60244;BME280;46106;51.468;5.814;2022-08-21T00:15:59;101379.16;;;14.68;100.00
60244;BME280;46106;51.468;5.814;2022-08-21T00:18:26;101371.41;;;14.62;100.00
60244;BME280;46106;51.468;5.814;2022-08-21T00:20:52;101373.34;;;14.50;100.00
60244;BME280;46106;51.468;5.814;2022-08-21T00:23:19;101374.44;;;14.59;100.00
60244;BME280;46106;51.468;5.814;2022-08-21T00:25:45;101361.06;;;14.55;100.00
60244;BME280;46106;51.468;5.814;2022-08-21T00:28:12;101356.69;;;14.52;100.00
60244;BME280;46106;51.468;5.814;2022-08-21T00:30:39;101355.22;;;14.48;100.00
60244;BME280;46106;51.468;5.814;2022-08-21T00:33:05;101357.22;;;14.46;100.00
60244;BME280;46106;51.468;5.814;2022-08-21T00:35:34;101355.75;;;14.42;100.00
60244;BME280;46106;51.468;5.814;2022-08-21T00:38:01;101351.81;;;14.44;100.00
60244;BME280;46106;51.468;5.814;2022-08-21T00:40:41;101350.97;;;14.44;100.00
60244;BME280;46106;51.468;5.814;2022-08-21T00:43:14;101349.97;;;14.45;100.00
60244;BME280;46106;51.468;5.814;2022-08-21T00:45:42;101353.06;;;14.30;100.00
60244;BME280;46106;51.468;5.814;2022-08-21T00:48:08;101348.00;;;14.36;100.00
60244;BME280;46106;51.468;5.814;2022-08-21T00:50:38;101351.69;;;14.25;100.00
60244;BME280;46106;51.468;5.814;2022-08-21T00:53:06;101355.00;;;14.19;100.00
60244;BME280;46106;51.468;5.814;2022-08-21T00:55:34;101350.16;;;14.32;100.00
60244;BME280;46106;51.468;5.814;2022-08-21T00:58:07;101344.19;;;14.27;100.00
60244;BME280;46106;51.468;5.814;2022-08-21T01:00:36;101343.50;;;14.34;100.00
60244;BME280;46106;51.468;5.814;2022-08-21T01:03:08;101346.75;;;14.40;100.00
60244;BME280;46106;51.468;5.814;2022-08-21T01:05:35;101346.75;;;14.40;100.00
60244;BME280;46106;51.468;5.814;2022-08-21T01:08:01;101345.31;;;14.45;100.00
60244;BME280;46106;51.468;5.814;2022-08-21T01:10:31;101336.13;;;14.56;100.00
60244;BME280;46106;51.468;5.814;2022-08-21T01:12:59;101341.00;;;14.52;100.00
60244;BME280;46106;51.468;5.814;2022-08-21T01:15:33;101340.75;;;14.56;100.00
60244;BME280;46106;51.468;5.814;2022-08-21T01:18:02;101345.97;;;14.38;100.00
60244;BME280;46106;51.468;5.814;2022-08-21T01:20:29;101340.19;;;14.20;100.00
60244;BME280;46106;51.468;5.814;2022-08-21T01:22:56;101346.53;;;14.10;100.00
60244;BME280;46106;51.468;5.814;2022-08-21T01:25:21;101350.69;;;14.26;100.00
60244;BME280;46106;51.468;5.814;2022-08-21T01:27:47;101343.91;;;14.09;100.00
60244;BME280;46106;51.468;5.814;2022-08-21T01:30:20;101352.84;;;14.22;100.00
60244;BME280;46106;51.468;5.814;2022-08-21T01:32:48;101346.13;;;14.15;100.00
60244;BME280;46106;51.468;5.814;2022-08-21T01:35:17;101352.91;;;14.11;100.00
60244;BME280;46106;51.468;5.814;2022-08-21T01:37:43;101358.19;;;14.03;100.00
60244;BME280;46106;51.468;5.814;2022-08-21T01:40:11;101355.59;;;13.90;100.00
60244;BME280;46106;51.468;5.814;2022-08-21T01:42:38;101345.16;;;13.72;100.00
60244;BME280;46106;51.468;5.814;2022-08-21T01:45:08;101341.41;;;13.73;100.00
60244;BME280;46106;51.468;5.814;2022-08-21T01:47:38;101339.94;;;13.69;100.00
60244;BME280;46106;51.468;5.814;2022-08-21T01:50:07;101342.47;;;13.61;100.00
60244;BME280;46106;51.468;5.814;2022-08-21T01:52:33;101330.72;;;13.48;100.00
60244;BME280;46106;51.468;5.814;2022-08-21T01:55:00;101322.88;;;13.43;100.00
60244;BME280;46106;51.468;5.814;2022-08-21T01:57:26;101328.72;;;13.50;100.00
60244;BME280;46106;51.468;5.814;2022-08-21T01:59:52;101334.34;;;13.48;100.00
60244;BME280;46106;51.468;5.814;2022-08-21T02:02:21;101340.47;;;13.52;100.00
60244;BME280;46106;51.468;5.814;2022-08-21T02:04:48;101348.91;;;13.71;100.00
60244;BME280;46106;51.468;5.814;2022-08-21T02:07:13;101341.56;;;13.60;100.00
60244;BME280;46106;51.468;5.814;2022-08-21T02:09:45;101328.94;;;13.58;100.00
60244;BME280;46106;51.468;5.814;2022-08-21T02:12:15;101340.78;;;13.70;100.00
60244;BME280;46106;51.468;5.814;2022-08-21T02:14:46;101338.41;;;13.65;100.00
60244;BME280;46106;51.468;5.814;2022-08-21T02:17:15;101331.03;;;13.66;100.00
60244;BME280;46106;51.468;5.814;2022-08-21T02:19:41;101323.28;;;13.71;100.00
60244;BME280;46106;51.468;5.814;2022-08-21T02:22:10;101325.63;;;13.75;100.00
60244;BME280;46106;51.468;5.814;2022-08-21T02:24:39;101319.38;;;13.73;100.00
60244;BME280;46106;51.468;5.814;2022-08-21T02:27:04;101328.13;;;13.78;100.00
60244;BME280;46106;51.468;5.814;2022-08-21T02:29:30;101308.66;;;13.59;100.00
60244;BME280;46106;51.468;5.814;2022-08-21T02:31:57;101320.81;;;13.56;100.00
60244;BME280;46106;51.468;5.814;2022-08-21T02:34:25;101327.09;;;13.24;100.00
60244;BME280;46106;51.468;5.814;2022-08-21T02:36:50;101321.59;;;13.13;100.00
60244;BME280;46106;51.468;5.814;2022-08-21T02:39:19;101317.84;;;13.26;100.00
60244;BME280;46106;51.468;5.814;2022-08-21T02:41:44;101315.59;;;13.19;100.00
60244;BME280;46106;51.468;5.814;2022-08-21T02:44:13;101310.09;;;13.19;100.00
60244;BME280;46106;51.468;5.814;2022-08-21T02:46:42;101313.63;;;13.10;100.00
60244;BME280;46106;51.468;5.814;2022-08-21T02:49:08;101311.75;;;13.22;100.00
60244;BME280;46106;51.468;5.814;2022-08-21T02:51:33;101305.09;;;13.24;100.00
60244;BME280;46106;51.468;5.814;2022-08-21T02:53:59;101307.09;;;13.22;100.00
60244;BME280;46106;51.468;5.814;2022-08-21T02:56:26;101307.47;;;13.18;100.00
60244;BME280;46106;51.468;5.814;2022-08-21T02:58:53;101304.84;;;13.16;100.00
60244;BME280;46106;51.468;5.814;2022-08-21T03:01:19;101310.47;;;13.26;100.00
60244;BME280;46106;51.468;5.814;2022-08-21T03:03:46;101305.09;;;13.24;100.00
60244;BME280;46106;51.468;5.814;2022-08-21T03:06:16;101308.75;;;13.25;100.00
60244;BME280;46106;51.468;5.814;2022-08-21T03:08:43;101302.09;;;13.39;100.00
60244;BME280;46106;51.468;5.814;2022-08-21T03:11:14;101307.59;;;13.39;100.00
60244;BME280;46106;51.468;5.814;2022-08-21T03:13:43;101306.72;;;13.50;100.00
60244;BME280;46106;51.468;5.814;2022-08-21T03:16:09;101304.84;;;13.39;100.00
60244;BME280;46106;51.468;5.814;2022-08-21T03:18:34;101309.25;;;13.41;100.00
60244;BME280;46106;51.468;5.814;2022-08-21T03:21:00;101313.22;;;13.49;100.00
60244;BME280;46106;51.468;5.814;2022-08-21T03:23:26;101305.09;;;13.36;100.00
60244;BME280;46106;51.468;5.814;2022-08-21T03:25:54;101307.25;;;13.32;100.00
60244;BME280;46106;51.468;5.814;2022-08-21T03:28:20;101312.50;;;13.35;100.00
60244;BME280;46106;51.468;5.814;2022-08-21T03:30:49;101315.72;;;13.40;100.00
60244;BME280;46106;51.468;5.814;2022-08-21T03:33:15;101320.81;;;13.56;100.00
60244;BME280;46106;51.468;5.814;2022-08-21T03:35:43;101311.84;;;13.54;100.00
60244;BME280;46106;51.468;5.814;2022-08-21T03:38:13;101313.19;;;13.60;100.00
60244;BME280;46106;51.468;5.814;2022-08-21T03:40:41;101311.06;;;13.52;100.00
60244;BME280;46106;51.468;5.814;2022-08-21T03:43:08;101311.03;;;13.64;100.00
60244;BME280;46106;51.468;5.814;2022-08-21T03:45:35;101302.66;;;13.65;100.00
60244;BME280;46106;51.468;5.814;2022-08-21T03:48:02;101313.41;;;13.68;100.00
60244;BME280;46106;51.468;5.814;2022-08-21T03:50:33;101318.78;;;13.70;100.00
60244;BME280;46106;51.468;5.814;2022-08-21T03:53:03;101313.91;;;13.62;100.00
60244;BME280;46106;51.468;5.814;2022-08-21T03:55:29;101312.94;;;13.63;100.00
60244;BME280;46106;51.468;5.814;2022-08-21T03:57:55;101315.69;;;13.63;100.00
60244;BME280;46106;51.468;5.814;2022-08-21T04:00:21;101314.31;;;13.57;100.00
60244;BME280;46106;51.468;5.814;2022-08-21T04:02:47;101311.28;;;13.60;100.00
60244;BME280;46106;51.468;5.814;2022-08-21T04:05:17;101314.16;;;13.59;100.00
60244;BME280;46106;51.468;5.814;2022-08-21T04:08:00;101309.16;;;13.64;100.00
60244;BME280;46106;51.468;5.814;2022-08-21T04:10:32;101315.06;;;13.59;100.00
60244;BME280;46106;51.468;5.814;2022-08-21T04:13:04;101316.44;;;13.54;100.00
60244;BME280;46106;51.468;5.814;2022-08-21T04:15:30;101308.06;;;13.55;100.00
60244;BME280;46106;51.468;5.814;2022-08-21T04:17:56;101315.44;;;13.55;100.00
60244;BME280;46106;51.468;5.814;2022-08-21T04:20:23;101307.94;;;13.57;100.00
60244;BME280;46106;51.468;5.814;2022-08-21T04:22:50;101315.06;;;13.59;100.00
60244;BME280;46106;51.468;5.814;2022-08-21T04:25:18;101310.94;;;13.54;100.00
60244;BME280;46106;51.468;5.814;2022-08-21T04:27:48;101311.06;;;13.52;100.00
60244;BME280;46106;51.468;5.814;2022-08-21T04:30:15;101317.47;;;13.53;100.00
60244;BME280;46106;51.468;5.814;2022-08-21T04:32:45;101308.56;;;13.49;100.00
60244;BME280;46106;51.468;5.814;2022-08-21T04:35:14;101308.69;;;13.48;100.00
60244;BME280;46106;51.468;5.814;2022-08-21T04:37:41;101313.94;;;13.51;100.00
60244;BME280;46106;51.468;5.814;2022-08-21T04:40:07;101309.81;;;13.56;100.00
60244;BME280;46106;51.468;5.814;2022-08-21T04:42:44;101308.53;;;13.60;100.00
60244;BME280;46106;51.468;5.814;2022-08-21T04:47:51;101308.78;;;13.57;100.00
60244;BME280;46106;51.468;5.814;2022-08-21T04:50:18;101314.16;;;13.59;100.00
60244;BME280;46106;51.468;5.814;2022-08-21T04:52:44;101315.94;;;13.60;100.00
60244;BME280;46106;51.468;5.814;2022-08-21T04:55:12;101315.16;;;13.69;100.00
60244;BME280;46106;51.468;5.814;2022-08-21T04:57:39;101319.91;;;13.67;100.00
60244;BME280;46106;51.468;5.814;2022-08-21T05:00:06;101323.81;;;13.65;100.00
60244;BME280;46106;51.468;5.814;2022-08-21T05:02:35;101332.69;;;13.57;100.00
60244;BME280;46106;51.468;5.814;2022-08-21T05:05:05;101333.19;;;13.51;100.00
60244;BME280;46106;51.468;5.814;2022-08-21T05:07:33;101346.94;;;13.62;100.00
60244;BME280;46106;51.468;5.814;2022-08-21T05:10:00;101338.19;;;13.57;100.00
60244;BME280;46106;51.468;5.814;2022-08-21T05:12:26;101338.81;;;13.60;100.00
60244;BME280;46106;51.468;5.814;2022-08-21T05:14:52;101333.31;;;13.60;100.00
60244;BME280;46106;51.468;5.814;2022-08-21T05:17:17;101328.41;;;13.64;100.00
60244;BME280;46106;51.468;5.814;2022-08-21T05:19:46;101342.03;;;13.66;100.00
60244;BME280;46106;51.468;5.814;2022-08-21T05:22:19;101341.41;;;13.73;100.00
60244;BME280;46106;51.468;5.814;2022-08-21T05:24:48;101337.41;;;13.77;100.00
60244;BME280;46106;51.468;5.814;2022-08-21T05:27:14;101338.38;;;13.76;100.00
60244;BME280;46106;51.468;5.814;2022-08-21T05:29:40;101340.75;;;13.81;100.00
60244;BME280;46106;51.468;5.814;2022-08-21T05:32:13;101339.81;;;13.92;100.00
60244;BME280;46106;51.468;5.814;2022-08-21T05:34:39;101350.06;;;14.01;100.00
60244;BME280;46106;51.468;5.814;2022-08-21T05:37:11;101341.00;;;14.10;100.00
60244;BME280;46106;51.468;5.814;2022-08-21T05:39:39;101348.88;;;14.15;100.00
60244;BME280;46106;51.468;5.814;2022-08-21T05:42:06;101355.94;;;14.29;100.00
60244;BME280;46106;51.468;5.814;2022-08-21T05:44:32;101358.97;;;14.47;100.00
60244;BME280;46106;51.468;5.814;2022-08-21T05:47:07;101354.25;;;14.59;100.00
60244;BME280;46106;51.468;5.814;2022-08-21T05:49:34;101362.91;;;14.96;100.00
60244;BME280;46106;51.468;5.814;2022-08-21T05:52:00;101365.56;;;15.07;100.00
60244;BME280;46106;51.468;5.814;2022-08-21T05:54:26;101352.34;;;15.01;100.00
60244;BME280;46106;51.468;5.814;2022-08-21T05:56:52;101363.22;;;15.34;100.00
60244;BME280;46106;51.468;5.814;2022-08-21T05:59:19;101370.28;;;15.17;100.00
60244;BME280;46106;51.468;5.814;2022-08-21T06:01:45;101362.56;;;15.61;100.00
60244;BME280;46106;51.468;5.814;2022-08-21T06:04:11;101373.25;;;15.44;100.00
60244;BME280;46106;51.468;5.814;2022-08-21T06:06:38;101363.97;;;15.46;100.00
60244;BME280;46106;51.468;5.814;2022-08-21T06:09:04;101366.22;;;15.71;100.00
60244;BME280;46106;51.468;5.814;2022-08-21T06:11:32;101367.88;;;16.32;100.00
60244;BME280;46106;51.468;5.814;2022-08-21T06:13:58;101367.00;;;16.12;100.00
60244;BME280;46106;51.468;5.814;2022-08-21T06:16:24;101364.25;;;16.42;100.00
60244;BME280;46106;51.468;5.814;2022-08-21T06:18:50;101369.63;;;16.53;100.00
60244;BME280;46106;51.468;5.814;2022-08-21T06:21:16;101356.22;;;16.48;100.00
60244;BME280;46106;51.468;5.814;2022-08-21T06:23:45;101363.16;;;16.62;100.00
60244;BME280;46106;51.468;5.814;2022-08-21T06:26:12;101360.13;;;16.56;100.00
60244;BME280;46106;51.468;5.814;2022-08-21T06:28:38;101369.25;;;16.76;100.00
60244;BME280;46106;51.468;5.814;2022-08-21T06:31:17;101366.94;;;16.81;100.00
60244;BME280;46106;51.468;5.814;2022-08-21T06:33:43;101371.78;;;17.16;100.00
60244;BME280;46106;51.468;5.814;2022-08-21T06:36:08;101362.59;;;16.68;100.00
60244;BME280;46106;51.468;5.814;2022-08-21T06:38:35;101366.03;;;16.90;100.00
60244;BME280;46106;51.468;5.814;2022-08-21T06:41:01;101367.84;;;17.19;100.00
60244;BME280;46106;51.468;5.814;2022-08-21T06:43:27;101374.81;;;17.51;100.00
60244;BME280;46106;51.468;5.814;2022-08-21T06:45:52;101372.16;;;17.59;100.00
60244;BME280;46106;51.468;5.814;2022-08-21T06:48:18;101374.22;;;17.57;100.00
60244;BME280;46106;51.468;5.814;2022-08-21T06:50:44;101374.81;;;17.51;100.00
60244;BME280;46106;51.468;5.814;2022-08-21T06:53:12;101376.66;;;17.60;100.00
60244;BME280;46106;51.468;5.814;2022-08-21T06:55:44;101369.22;;;17.33;100.00
60244;BME280;46106;51.468;5.814;2022-08-21T06:58:11;101382.63;;;17.65;100.00
60244;BME280;46106;51.468;5.814;2022-08-21T07:00:46;101373.59;;;18.27;100.00
60244;BME280;46106;51.468;5.814;2022-08-21T07:03:26;101383.31;;;18.31;100.00
60244;BME280;46106;51.468;5.814;2022-08-21T07:05:54;101381.84;;;18.36;100.00
60244;BME280;46106;51.468;5.814;2022-08-21T07:08:29;101376.00;;;18.48;100.00
60244;BME280;46106;51.468;5.814;2022-08-21T07:10:57;101374.53;;;18.17;100.00
60244;BME280;46106;51.468;5.814;2022-08-21T07:13:24;101369.94;;;18.08;100.00
60244;BME280;46106;51.468;5.814;2022-08-21T07:15:52;101369.06;;;18.08;100.00
60244;BME280;46106;51.468;5.814;2022-08-21T07:18:19;101371.47;;;18.03;100.00
60244;BME280;46106;51.468;5.814;2022-08-21T07:20:46;101364.63;;;18.15;100.00
60244;BME280;46106;51.468;5.814;2022-08-21T07:25:50;101372.34;;;18.83;100.00
60244;BME280;46106;51.468;5.814;2022-08-21T07:28:16;101365.03;;;19.08;100.00
60244;BME280;46106;51.468;5.814;2022-08-21T07:30:41;101368.56;;;19.19;100.00
60244;BME280;46106;51.468;5.814;2022-08-21T07:33:11;101365.38;;;19.40;100.00
60244;BME280;46106;51.468;5.814;2022-08-21T07:35:38;101365.78;;;19.53;100.00
60244;BME280;46106;51.468;5.814;2022-08-21T07:38:07;101365.31;;;19.74;100.00
60244;BME280;46106;51.468;5.814;2022-08-21T07:40:36;101362.38;;;21.24;100.00
60244;BME280;46106;51.468;5.814;2022-08-21T07:43:02;101361.75;;;20.97;100.00
60244;BME280;46106;51.468;5.814;2022-08-21T07:45:29;101365.28;;;20.83;100.00
60244;BME280;46106;51.468;5.814;2022-08-21T07:47:57;101352.56;;;20.55;100.00
60244;BME280;46106;51.468;5.814;2022-08-21T07:50:24;101359.59;;;21.24;100.00
60244;BME280;46106;51.468;5.814;2022-08-21T07:52:50;101351.88;;;20.45;100.00
60244;BME280;46106;51.468;5.814;2022-08-21T07:55:18;101356.75;;;20.35;100.00
60244;BME280;46106;51.468;5.814;2022-08-21T07:57:46;101352.91;;;20.11;100.00
60244;BME280;46106;51.468;5.814;2022-08-21T08:00:15;101357.97;;;20.32;100.00
60244;BME280;46106;51.468;5.814;2022-08-21T08:02:44;101359.00;;;20.48;100.00
60244;BME280;46106;51.468;5.814;2022-08-21T08:05:11;101364.19;;;20.10;100.00
60244;BME280;46106;51.468;5.814;2022-08-21T08:07:38;101361.78;;;20.64;100.00
60244;BME280;46106;51.468;5.814;2022-08-21T08:10:05;101361.44;;;20.75;100.00
60244;BME280;46106;51.468;5.814;2022-08-21T08:12:35;101367.28;;;22.47;100.00
60244;BME280;46106;51.468;5.814;2022-08-21T08:15:04;101362.38;;;21.72;100.00
60244;BME280;46106;51.468;5.814;2022-08-21T08:17:34;101365.59;;;21.44;100.00
60244;BME280;46106;51.468;5.814;2022-08-21T08:20:08;101361.09;;;22.37;100.00
60244;BME280;46106;51.468;5.814;2022-08-21T08:22:37;101361.69;;;22.47;100.00
60244;BME280;46106;51.468;5.814;2022-08-21T08:25:06;101360.44;;;21.72;100.00
60244;BME280;46106;51.468;5.814;2022-08-21T08:27:37;101349.75;;;21.44;100.00
60244;BME280;46106;51.468;5.814;2022-08-21T08:30:04;101347.84;;;21.84;100.00
60244;BME280;46106;51.468;5.814;2022-08-21T08:32:30;101344.88;;;21.46;100.00
60244;BME280;46106;51.468;5.814;2022-08-21T08:34:56;101346.91;;;21.92;100.00
60244;BME280;46106;51.468;5.814;2022-08-21T08:37:22;101354.38;;;21.69;100.00
60244;BME280;46106;51.468;5.814;2022-08-21T08:39:48;101337.78;;;21.36;100.00
60244;BME280;46106;51.468;5.814;2022-08-21T08:42:29;101355.69;;;21.41;100.00
60244;BME280;46106;51.468;5.814;2022-08-21T08:45:10;101339.38;;;22.01;100.00
60244;BME280;46106;51.468;5.814;2022-08-21T08:47:44;101338.09;;;22.88;100.00
60244;BME280;46106;51.468;5.814;2022-08-21T08:50:28;101349.84;;;22.98;100.00
60244;BME280;46106;51.468;5.814;2022-08-21T08:53:06;101336.31;;;22.57;100.00
60244;BME280;46106;51.468;5.814;2022-08-21T08:55:38;101332.66;;;22.10;100.00
60244;BME280;46106;51.468;5.814;2022-08-21T08:58:45;101322.69;;;21.93;100.00
60244;BME280;46106;51.468;5.814;2022-08-21T09:01:19;101332.00;;;23.74;100.00
60244;BME280;46106;51.468;5.814;2022-08-21T09:03:47;101329.44;;;23.94;100.00
60244;BME280;46106;51.468;5.814;2022-08-21T09:06:37;101316.75;;;24.13;100.00
60244;BME280;46106;51.468;5.814;2022-08-21T09:09:17;101327.06;;;23.24;100.00
60244;BME280;46106;51.468;5.814;2022-08-21T09:12:00;101317.69;;;23.47;100.00
60244;BME280;46106;51.468;5.814;2022-08-21T09:14:44;101319.63;;;23.17;100.00
60244;BME280;46106;51.468;5.814;2022-08-21T09:27:47;101313.06;;;22.65;100.00
60244;BME280;46106;51.468;5.814;2022-08-21T09:30:14;101319.59;;;22.87;100.00
60244;BME280;46106;51.468;5.814;2022-08-21T09:32:42;101314.50;;;22.90;100.00
60244;BME280;46106;51.468;5.814;2022-08-21T09:37:47;101310.22;;;22.27;100.00
60244;BME280;46106;51.468;5.814;2022-08-21T09:45:42;101321.09;;;23.27;100.00
60244;BME280;46106;51.468;5.814;2022-08-21T09:50:38;101316.34;;;23.28;100.00
60244;BME280;46106;51.468;5.814;2022-08-21T09:53:28;101312.69;;;23.79;100.00
60244;BME280;46106;51.468;5.814;2022-08-21T09:56:04;101319.94;;;24.10;100.00
60244;BME280;46106;51.468;5.814;2022-08-21T09:58:50;101318.94;;;24.39;100.00
60244;BME280;46106;51.468;5.814;2022-08-21T10:01:19;101315.78;;;24.49;100.00
60244;BME280;46106;51.468;5.814;2022-08-21T10:03:47;101305.06;;;24.81;99.43
60244;BME280;46106;51.468;5.814;2022-08-21T10:06:27;101313.88;;;23.84;100.00
60244;BME280;46106;51.468;5.814;2022-08-21T10:09:14;101303.38;;;23.20;100.00
60244;BME280;46106;51.468;5.814;2022-08-21T10:11:52;101308.53;;;23.53;100.00
60244;BME280;46106;51.468;5.814;2022-08-21T10:17:44;101302.22;;;24.24;97.13
60244;BME280;46106;51.468;5.814;2022-08-21T10:20:41;101305.97;;;24.59;97.96
60244;BME280;46106;51.468;5.814;2022-08-21T10:45:45;101297.81;;;24.15;89.05
60244;BME280;46106;51.468;5.814;2022-08-21T10:48:28;101303.28;;;24.01;88.56
60244;BME280;46106;51.468;5.814;2022-08-21T10:54:34;101299.13;;;25.87;80.89
60244;BME280;46106;51.468;5.814;2022-08-21T10:57:27;101310.91;;;25.62;80.52
60244;BME280;46106;51.468;5.814;2022-08-21T11:00:04;101308.47;;;25.04;84.68
60244;BME280;46106;51.468;5.814;2022-08-21T11:02:40;101302.31;;;24.59;83.95
60244;BME280;46106;51.468;5.814;2022-08-21T11:05:37;101296.28;;;24.90;83.33
60244;BME280;46106;51.468;5.814;2022-08-21T11:08:35;101300.34;;;24.81;81.45
60244;BME280;46106;51.468;5.814;2022-08-21T11:13:51;101301.94;;;24.97;80.82
60244;BME280;46106;51.468;5.814;2022-08-21T11:16:33;101294.47;;;25.53;77.55
60244;BME280;46106;51.468;5.814;2022-08-21T11:19:12;101294.84;;;25.36;79.15
60244;BME280;46106;51.468;5.814;2022-08-21T11:21:52;101287.97;;;25.39;74.88
60244;BME280;46106;51.468;5.814;2022-08-21T11:24:49;101296.44;;;25.52;78.52
60244;BME280;46106;51.468;5.814;2022-08-21T11:29:55;101298.28;;;24.97;77.97
60244;BME280;46106;51.468;5.814;2022-08-21T11:32:36;101291.81;;;24.96;77.18
60244;BME280;46106;51.468;5.814;2022-08-21T11:46:07;101290.00;;;24.82;77.51
60244;BME280;46106;51.468;5.814;2022-08-21T11:48:59;101276.69;;;25.25;73.98
60244;BME280;46106;51.468;5.814;2022-08-21T11:51:41;101279.66;;;25.65;74.66
60244;BME280;46106;51.468;5.814;2022-08-21T11:54:37;101279.44;;;25.67;73.53
60244;BME280;46106;51.468;5.814;2022-08-21T11:57:25;101281.28;;;25.46;73.50
60244;BME280;46106;51.468;5.814;2022-08-21T12:00:11;101287.38;;;25.15;74.01
60244;BME280;46106;51.468;5.814;2022-08-21T12:02:45;101289.31;;;25.14;73.04
60244;BME280;46106;51.468;5.814;2022-08-21T12:05:26;101286.50;;;24.73;74.99
60244;BME280;46106;51.468;5.814;2022-08-21T12:08:14;101285.78;;;24.43;75.02
60244;BME280;46106;51.468;5.814;2022-08-21T12:10:59;101289.47;;;25.00;74.24
60244;BME280;46106;51.468;5.814;2022-08-21T12:13:27;101289.34;;;25.21;74.59
60244;BME280;46106;51.468;5.814;2022-08-21T12:16:15;101293.75;;;25.30;73.30
60244;BME280;46106;51.468;5.814;2022-08-21T12:18:44;101297.63;;;25.91;68.70
60244;BME280;46106;51.468;5.814;2022-08-21T12:21:22;101298.13;;;26.15;68.36
60244;BME280;46106;51.468;5.814;2022-08-21T12:24:02;101295.13;;;25.55;68.06
60244;BME280;46106;51.468;5.814;2022-08-21T12:29:21;101293.44;;;25.54;69.72
60244;BME280;46106;51.468;5.814;2022-08-21T12:32:01;101292.59;;;25.60;70.66
60244;BME280;46106;51.468;5.814;2022-08-21T12:34:34;101293.72;;;25.85;68.15
60244;BME280;46106;51.468;5.814;2022-08-21T12:37:07;101286.84;;;25.95;67.55
60244;BME280;46106;51.468;5.814;2022-08-21T12:39:43;101290.69;;;25.80;64.55
60244;BME280;46106;51.468;5.814;2022-08-21T12:42:19;101285.69;;;25.21;65.95
60244;BME280;46106;51.468;5.814;2022-08-21T12:44:50;101277.28;;;25.21;64.67
60244;BME280;46106;51.468;5.814;2022-08-21T12:50:04;101280.28;;;24.28;69.47
60244;BME280;46106;51.468;5.814;2022-08-21T12:52:51;101284.47;;;24.17;69.80
60244;BME280;46106;51.468;5.814;2022-08-21T12:55:27;101284.63;;;24.30;68.58
60244;BME280;46106;51.468;5.814;2022-08-21T12:58:00;101293.38;;;24.70;64.77
60244;BME280;46106;51.468;5.814;2022-08-21T13:00:29;101273.44;;;24.87;66.58
60244;BME280;46106;51.468;5.814;2022-08-21T13:03:04;101279.06;;;24.93;68.97
60244;BME280;46106;51.468;5.814;2022-08-21T13:05:34;101273.50;;;25.35;64.91
60244;BME280;46106;51.468;5.814;2022-08-21T13:08:09;101274.50;;;25.82;66.79
60244;BME280;46106;51.468;5.814;2022-08-21T13:10:40;101282.94;;;25.89;64.40
60244;BME280;46106;51.468;5.814;2022-08-21T13:13:20;101282.06;;;25.75;63.82
60244;BME280;46106;51.468;5.814;2022-08-21T13:15:46;101286.09;;;25.59;62.68
60244;BME280;46106;51.468;5.814;2022-08-21T13:18:20;101283.88;;;25.41;61.83
60244;BME280;46106;51.468;5.814;2022-08-21T13:20:48;101277.91;;;25.64;60.71
60244;BME280;46106;51.468;5.814;2022-08-21T13:23:26;101269.47;;;25.09;61.50
60244;BME280;46106;51.468;5.814;2022-08-21T13:25:53;101279.63;;;25.10;63.64
60244;BME280;46106;51.468;5.814;2022-08-21T13:28:20;101269.31;;;25.24;63.95
60244;BME280;46106;51.468;5.814;2022-08-21T13:30:50;101276.13;;;25.08;66.73
60244;BME280;46106;51.468;5.814;2022-08-21T13:33:24;101269.56;;;24.88;66.17
60244;BME280;46106;51.468;5.814;2022-08-21T13:35:59;101274.25;;;25.16;66.07
60244;BME280;46106;51.468;5.814;2022-08-21T13:38:31;101274.44;;;24.79;66.70
60244;BME280;46106;51.468;5.814;2022-08-21T13:41:01;101280.41;;;24.69;68.21
60244;BME280;46106;51.468;5.814;2022-08-21T13:43:32;101269.25;;;24.48;69.65
60244;BME280;46106;51.468;5.814;2022-08-21T13:46:00;101280.78;;;24.59;68.67
60244;BME280;46106;51.468;5.814;2022-08-21T13:48:33;101269.25;;;24.48;68.36
60244;BME280;46106;51.468;5.814;2022-08-21T13:51:01;101272.78;;;24.35;68.22
60244;BME280;46106;51.468;5.814;2022-08-21T13:55:58;101268.56;;;24.67;67.38
60244;BME280;46106;51.468;5.814;2022-08-21T13:58:29;101267.50;;;24.68;67.43
60244;BME280;46106;51.468;5.814;2022-08-21T14:00:56;101260.53;;;24.57;68.05
60244;BME280;46106;51.468;5.814;2022-08-21T14:03:43;101263.84;;;24.46;69.60
60244;BME280;46106;51.468;5.814;2022-08-21T14:06:18;101256.63;;;24.30;68.71
60244;BME280;46106;51.468;5.814;2022-08-21T14:08:50;101266.31;;;24.56;69.41
60244;BME280;46106;51.468;5.814;2022-08-21T14:11:18;101257.56;;;24.66;67.26
60244;BME280;46106;51.468;5.814;2022-08-21T14:16:23;101251.50;;;24.97;64.63
60244;BME280;46106;51.468;5.814;2022-08-21T14:18:53;101242.50;;;25.08;65.36
60244;BME280;46106;51.468;5.814;2022-08-21T14:21:39;101237.63;;;24.82;62.98
60244;BME280;46106;51.468;5.814;2022-08-21T14:24:08;101245.72;;;25.05;66.21